sensor_id;sensor_type;location;lat;lon;timestamp;P1;durP1;ratioP1;P2;durP2;ratioP2
49015;SDS011;34830;44.064;12.566;2024-02-23T00:00:02;4.13;;;2.25;;
49015;SDS011;34830;44.064;12.566;2024-02-23T00:02:31;9.57;;;2.45;;
49015;SDS011;34830;44.064;12.566;2024-02-23T00:04:57;9.13;;;2.47;;
49015;SDS011;34830;44.064;12.566;2024-02-23T00:07:23;4.20;;;1.80;;
49015;SDS011;34830;44.064;12.566;2024-02-23T00:09:49;9.13;;;2.38;;
49015;SDS011;34830;44.064;12.566;2024-02-23T00:12:15;6.13;;;2.20;;
49015;SDS011;34830;44.064;12.566;2024-02-23T00:14:41;8.60;;;2.50;;
49015;SDS011;34830;44.064;12.566;2024-02-23T00:17:07;3.78;;;1.77;;
49015;SDS011;34830;44.064;12.566;2024-02-23T00:19:34;4.95;;;2.17;;
49015;SDS011;34830;44.064;12.566;2024-02-23T00:22:00;6.43;;;2.22;;
49015;SDS011;34830;44.064;12.566;2024-02-23T00:24:26;5.55;;;2.13;;
49015;SDS011;34830;44.064;12.566;2024-02-23T00:26:52;4.57;;;2.53;;
49015;SDS011;34830;44.064;12.566;2024-02-23T00:29:18;7.40;;;2.60;;
49015;SDS011;34830;44.064;12.566;2024-02-23T00:31:45;6.38;;;2.00;;
49015;SDS011;34830;44.064;12.566;2024-02-23T00:34:11;7.03;;;2.60;;
49015;SDS011;34830;44.064;12.566;2024-02-23T00:36:39;6.10;;;2.00;;
49015;SDS011;34830;44.064;12.566;2024-02-23T00:39:06;6.13;;;2.47;;
49015;SDS011;34830;44.064;12.566;2024-02-23T00:41:36;4.38;;;1.73;;
49015;SDS011;34830;44.064;12.566;2024-02-23T00:44:02;5.03;;;1.80;;
49015;SDS011;34830;44.064;12.566;2024-02-23T00:46:29;6.07;;;1.80;;
49015;SDS011;34830;44.064;12.566;2024-02-23T00:48:55;5.05;;;1.67;;
49015;SDS011;34830;44.064;12.566;2024-02-23T00:51:21;6.10;;;2.03;;
49015;SDS011;34830;44.064;12.566;2024-02-23T00:53:47;8.32;;;1.88;;
49015;SDS011;34830;44.064;12.566;2024-02-23T00:56:13;8.18;;;1.77;;
49015;SDS011;34830;44.064;12.566;2024-02-23T00:58:39;7.43;;;1.70;;
49015;SDS011;34830;44.064;12.566;2024-02-23T01:01:05;6.35;;;1.70;;
49015;SDS011;34830;44.064;12.566;2024-02-23T01:03:31;5.45;;;2.20;;
49015;SDS011;34830;44.064;12.566;2024-02-23T01:05:58;6.28;;;1.80;;
49015;SDS011;34830;44.064;12.566;2024-02-23T01:08:24;4.13;;;1.85;;
49015;SDS011;34830;44.064;12.566;2024-02-23T01:10:50;6.78;;;1.60;;
49015;SDS011;34830;44.064;12.566;2024-02-23T01:13:16;4.00;;;1.85;;
49015;SDS011;34830;44.064;12.566;2024-02-23T01:15:42;8.20;;;1.80;;
49015;SDS011;34830;44.064;12.566;2024-02-23T01:18:08;3.03;;;1.42;;
49015;SDS011;34830;44.064;12.566;2024-02-23T01:20:35;10.15;;;1.73;;
49015;SDS011;34830;44.064;12.566;2024-02-23T01:23:01;7.05;;;1.90;;
49015;SDS011;34830;44.064;12.566;2024-02-23T01:25:27;6.93;;;1.52;;
49015;SDS011;34830;44.064;12.566;2024-02-23T01:27:53;4.90;;;1.83;;
49015;SDS011;34830;44.064;12.566;2024-02-23T01:30:20;4.32;;;1.48;;
49015;SDS011;34830;44.064;12.566;2024-02-23T01:32:46;5.55;;;1.95;;
49015;SDS011;34830;44.064;12.566;2024-02-23T01:35:12;5.90;;;1.90;;
49015;SDS011;34830;44.064;12.566;2024-02-23T01:37:38;7.05;;;1.80;;
49015;SDS011;34830;44.064;12.566;2024-02-23T01:40:04;5.85;;;1.70;;
49015;SDS011;34830;44.064;12.566;2024-02-23T01:42:31;3.13;;;1.67;;
49015;SDS011;34830;44.064;12.566;2024-02-23T01:44:57;4.65;;;1.38;;
49015;SDS011;34830;44.064;12.566;2024-02-23T01:47:23;4.88;;;2.20;;
49015;SDS011;34830;44.064;12.566;2024-02-23T01:49:50;3.35;;;1.45;;
49015;SDS011;34830;44.064;12.566;2024-02-23T01:52:16;6.22;;;2.17;;
49015;SDS011;34830;44.064;12.566;2024-02-23T01:54:43;3.03;;;1.50;;
49015;SDS011;34830;44.064;12.566;2024-02-23T01:57:10;6.60;;;1.80;;
49015;SDS011;34830;44.064;12.566;2024-02-23T01:59:36;7.18;;;1.52;;
49015;SDS011;34830;44.064;12.566;2024-02-23T02:02:04;4.60;;;1.40;;
49015;SDS011;34830;44.064;12.566;2024-02-23T02:04:31;8.32;;;2.45;;
49015;SDS011;34830;44.064;12.566;2024-02-23T02:06:57;4.53;;;1.80;;
49015;SDS011;34830;44.064;12.566;2024-02-23T02:09:24;7.63;;;1.65;;
49015;SDS011;34830;44.064;12.566;2024-02-23T02:11:50;5.35;;;2.08;;
49015;SDS011;34830;44.064;12.566;2024-02-23T02:14:17;3.17;;;1.52;;
49015;SDS011;34830;44.064;12.566;2024-02-23T02:16:43;4.57;;;1.77;;
49015;SDS011;34830;44.064;12.566;2024-02-23T02:19:10;6.85;;;1.92;;
49015;SDS011;34830;44.064;12.566;2024-02-23T02:21:36;3.17;;;1.77;;
49015;SDS011;34830;44.064;12.566;2024-02-23T02:24:03;5.30;;;1.77;;
49015;SDS011;34830;44.064;12.566;2024-02-23T02:26:30;3.58;;;1.83;;
49015;SDS011;34830;44.064;12.566;2024-02-23T02:28:56;4.95;;;1.67;;
49015;SDS011;34830;44.064;12.566;2024-02-23T02:31:22;6.63;;;2.17;;
49015;SDS011;34830;44.064;12.566;2024-02-23T02:33:48;5.57;;;1.90;;
49015;SDS011;34830;44.064;12.566;2024-02-23T02:36:14;4.40;;;2.20;;
49015;SDS011;34830;44.064;12.566;2024-02-23T02:38:40;5.13;;;1.17;;
49015;SDS011;34830;44.064;12.566;2024-02-23T02:41:06;7.32;;;1.80;;
49015;SDS011;34830;44.064;12.566;2024-02-23T02:43:32;4.70;;;1.67;;
49015;SDS011;34830;44.064;12.566;2024-02-23T02:45:58;4.85;;;1.33;;
49015;SDS011;34830;44.064;12.566;2024-02-23T02:48:25;4.47;;;1.50;;
49015;SDS011;34830;44.064;12.566;2024-02-23T02:50:51;7.00;;;1.70;;
49015;SDS011;34830;44.064;12.566;2024-02-23T02:53:17;4.82;;;1.50;;
49015;SDS011;34830;44.064;12.566;2024-02-23T02:55:43;7.25;;;1.63;;
49015;SDS011;34830;44.064;12.566;2024-02-23T02:58:11;3.17;;;1.55;;
49015;SDS011;34830;44.064;12.566;2024-02-23T03:00:37;5.88;;;1.63;;
49015;SDS011;34830;44.064;12.566;2024-02-23T03:03:03;4.40;;;1.48;;
49015;SDS011;34830;44.064;12.566;2024-02-23T03:05:29;4.65;;;2.08;;
49015;SDS011;34830;44.064;12.566;2024-02-23T03:07:55;3.42;;;1.50;;
49015;SDS011;34830;44.064;12.566;2024-02-23T03:10:21;4.85;;;1.40;;
49015;SDS011;34830;44.064;12.566;2024-02-23T03:12:47;5.43;;;1.73;;
49015;SDS011;34830;44.064;12.566;2024-02-23T03:15:14;4.28;;;1.60;;
49015;SDS011;34830;44.064;12.566;2024-02-23T03:17:40;5.93;;;2.10;;
49015;SDS011;34830;44.064;12.566;2024-02-23T03:20:06;3.15;;;1.50;;
49015;SDS011;34830;44.064;12.566;2024-02-23T03:22:37;3.80;;;1.70;;
49015;SDS011;34830;44.064;12.566;2024-02-23T03:25:03;2.63;;;1.23;;
49015;SDS011;34830;44.064;12.566;2024-02-23T03:27:34;4.35;;;1.70;;
49015;SDS011;34830;44.064;12.566;2024-02-23T03:30:05;4.25;;;1.48;;
49015;SDS011;34830;44.064;12.566;2024-02-23T03:32:34;3.63;;;1.52;;
49015;SDS011;34830;44.064;12.566;2024-02-23T03:35:05;7.73;;;1.83;;
49015;SDS011;34830;44.064;12.566;2024-02-23T03:37:32;4.90;;;1.52;;
49015;SDS011;34830;44.064;12.566;2024-02-23T03:39:58;4.65;;;1.60;;
49015;SDS011;34830;44.064;12.566;2024-02-23T03:42:25;5.07;;;1.40;;
49015;SDS011;34830;44.064;12.566;2024-02-23T03:44:52;3.38;;;1.33;;
49015;SDS011;34830;44.064;12.566;2024-02-23T03:47:18;3.92;;;1.60;;
49015;SDS011;34830;44.064;12.566;2024-02-23T03:49:44;3.10;;;1.60;;
49015;SDS011;34830;44.064;12.566;2024-02-23T03:52:10;3.63;;;1.70;;
49015;SDS011;34830;44.064;12.566;2024-02-23T03:54:36;2.95;;;1.30;;
49015;SDS011;34830;44.064;12.566;2024-02-23T03:57:02;9.75;;;2.97;;
49015;SDS011;34830;44.064;12.566;2024-02-23T03:59:29;3.22;;;1.35;;
49015;SDS011;34830;44.064;12.566;2024-02-23T04:01:55;6.43;;;1.83;;
49015;SDS011;34830;44.064;12.566;2024-02-23T04:04:21;5.28;;;1.60;;
49015;SDS011;34830;44.064;12.566;2024-02-23T04:06:47;4.63;;;1.75;;
49015;SDS011;34830;44.064;12.566;2024-02-23T04:09:14;7.43;;;1.80;;
49015;SDS011;34830;44.064;12.566;2024-02-23T04:11:40;4.03;;;1.60;;
49015;SDS011;34830;44.064;12.566;2024-02-23T04:14:06;6.60;;;1.88;;
49015;SDS011;34830;44.064;12.566;2024-02-23T04:16:32;3.95;;;1.40;;
49015;SDS011;34830;44.064;12.566;2024-02-23T04:18:58;5.80;;;1.67;;
49015;SDS011;34830;44.064;12.566;2024-02-23T04:21:25;6.20;;;2.08;;
49015;SDS011;34830;44.064;12.566;2024-02-23T04:23:52;8.15;;;1.80;;
49015;SDS011;34830;44.064;12.566;2024-02-23T04:26:18;3.88;;;1.50;;
49015;SDS011;34830;44.064;12.566;2024-02-23T04:28:44;5.07;;;1.67;;
49015;SDS011;34830;44.064;12.566;2024-02-23T04:31:10;7.18;;;2.08;;
49015;SDS011;34830;44.064;12.566;2024-02-23T04:33:36;6.30;;;1.35;;
49015;SDS011;34830;44.064;12.566;2024-02-23T04:36:03;13.70;;;3.83;;
49015;SDS011;34830;44.064;12.566;2024-02-23T04:38:32;6.15;;;1.55;;
49015;SDS011;34830;44.064;12.566;2024-02-23T04:41:02;12.48;;;1.70;;
49015;SDS011;34830;44.064;12.566;2024-02-23T04:43:30;7.78;;;1.80;;
49015;SDS011;34830;44.064;12.566;2024-02-23T04:45:56;3.85;;;1.40;;
49015;SDS011;34830;44.064;12.566;2024-02-23T04:48:22;7.55;;;1.77;;
49015;SDS011;34830;44.064;12.566;2024-02-23T04:50:48;6.97;;;2.00;;
49015;SDS011;34830;44.064;12.566;2024-02-23T04:53:14;4.75;;;1.80;;
49015;SDS011;34830;44.064;12.566;2024-02-23T04:55:40;5.68;;;1.60;;
49015;SDS011;34830;44.064;12.566;2024-02-23T04:58:07;4.15;;;1.85;;
49015;SDS011;34830;44.064;12.566;2024-02-23T05:00:33;3.95;;;1.55;;
49015;SDS011;34830;44.064;12.566;2024-02-23T05:02:59;5.28;;;1.75;;
49015;SDS011;34830;44.064;12.566;2024-02-23T05:05:29;5.68;;;2.00;;
49015;SDS011;34830;44.064;12.566;2024-02-23T05:07:56;4.00;;;1.70;;
49015;SDS011;34830;44.064;12.566;2024-02-23T05:10:22;5.68;;;1.63;;
49015;SDS011;34830;44.064;12.566;2024-02-23T05:12:48;7.35;;;2.40;;
49015;SDS011;34830;44.064;12.566;2024-02-23T05:15:15;5.63;;;1.80;;
49015;SDS011;34830;44.064;12.566;2024-02-23T05:17:41;8.80;;;1.90;;
49015;SDS011;34830;44.064;12.566;2024-02-23T05:20:07;3.55;;;1.70;;
49015;SDS011;34830;44.064;12.566;2024-02-23T05:22:36;4.22;;;1.52;;
49015;SDS011;34830;44.064;12.566;2024-02-23T05:25:02;5.32;;;1.80;;
49015;SDS011;34830;44.064;12.566;2024-02-23T05:27:30;6.03;;;2.35;;
49015;SDS011;34830;44.064;12.566;2024-02-23T05:29:57;5.15;;;2.20;;
49015;SDS011;34830;44.064;12.566;2024-02-23T05:32:23;4.10;;;1.95;;
49015;SDS011;34830;44.064;12.566;2024-02-23T05:34:49;4.03;;;2.00;;
49015;SDS011;34830;44.064;12.566;2024-02-23T05:37:18;6.03;;;1.80;;
49015;SDS011;34830;44.064;12.566;2024-02-23T05:39:44;3.92;;;1.58;;
49015;SDS011;34830;44.064;12.566;2024-02-23T05:42:11;3.15;;;1.85;;
49015;SDS011;34830;44.064;12.566;2024-02-23T05:44:38;6.93;;;1.85;;
49015;SDS011;34830;44.064;12.566;2024-02-23T05:47:05;4.55;;;1.73;;
49015;SDS011;34830;44.064;12.566;2024-02-23T05:49:31;7.00;;;2.33;;
49015;SDS011;34830;44.064;12.566;2024-02-23T05:51:57;4.22;;;1.80;;
49015;SDS011;34830;44.064;12.566;2024-02-23T05:54:23;3.95;;;1.98;;
49015;SDS011;34830;44.064;12.566;2024-02-23T05:56:49;5.93;;;1.98;;
49015;SDS011;34830;44.064;12.566;2024-02-23T05:59:15;22.25;;;4.25;;
49015;SDS011;34830;44.064;12.566;2024-02-23T06:01:41;3.30;;;1.98;;
49015;SDS011;34830;44.064;12.566;2024-02-23T06:04:07;4.70;;;2.35;;
49015;SDS011;34830;44.064;12.566;2024-02-23T06:06:34;5.95;;;2.00;;
49015;SDS011;34830;44.064;12.566;2024-02-23T06:09:00;4.35;;;2.05;;
49015;SDS011;34830;44.064;12.566;2024-02-23T06:11:26;3.13;;;1.77;;
49015;SDS011;34830;44.064;12.566;2024-02-23T06:13:52;5.28;;;2.72;;
49015;SDS011;34830;44.064;12.566;2024-02-23T06:16:18;7.57;;;3.05;;
49015;SDS011;34830;44.064;12.566;2024-02-23T06:18:44;5.18;;;2.15;;
49015;SDS011;34830;44.064;12.566;2024-02-23T06:21:11;8.23;;;2.20;;
49015;SDS011;34830;44.064;12.566;2024-02-23T06:23:38;8.82;;;2.30;;
49015;SDS011;34830;44.064;12.566;2024-02-23T06:26:05;6.88;;;2.80;;
49015;SDS011;34830;44.064;12.566;2024-02-23T06:28:31;6.57;;;1.83;;
49015;SDS011;34830;44.064;12.566;2024-02-23T06:30:58;12.73;;;2.80;;
49015;SDS011;34830;44.064;12.566;2024-02-23T06:33:24;8.00;;;2.45;;
49015;SDS011;34830;44.064;12.566;2024-02-23T06:35:50;5.10;;;2.55;;
49015;SDS011;34830;44.064;12.566;2024-02-23T06:38:18;4.75;;;2.42;;
49015;SDS011;34830;44.064;12.566;2024-02-23T06:40:44;21.42;;;3.50;;
49015;SDS011;34830;44.064;12.566;2024-02-23T06:43:10;7.38;;;3.03;;
49015;SDS011;34830;44.064;12.566;2024-02-23T06:45:36;9.05;;;2.65;;
49015;SDS011;34830;44.064;12.566;2024-02-23T06:48:02;5.28;;;2.20;;
49015;SDS011;34830;44.064;12.566;2024-02-23T06:50:29;4.63;;;2.10;;
49015;SDS011;34830;44.064;12.566;2024-02-23T06:52:55;6.32;;;2.10;;
49015;SDS011;34830;44.064;12.566;2024-02-23T06:55:21;3.65;;;2.45;;
49015;SDS011;34830;44.064;12.566;2024-02-23T06:57:47;4.43;;;2.22;;
49015;SDS011;34830;44.064;12.566;2024-02-23T07:00:14;7.40;;;2.42;;
49015;SDS011;34830;44.064;12.566;2024-02-23T07:02:40;7.38;;;2.90;;
49015;SDS011;34830;44.064;12.566;2024-02-23T07:05:07;4.57;;;2.08;;
49015;SDS011;34830;44.064;12.566;2024-02-23T07:07:34;5.68;;;2.60;;
49015;SDS011;34830;44.064;12.566;2024-02-23T07:10:00;7.38;;;3.45;;
49015;SDS011;34830;44.064;12.566;2024-02-23T07:12:27;10.57;;;3.05;;
49015;SDS011;34830;44.064;12.566;2024-02-23T07:14:55;9.43;;;2.45;;
49015;SDS011;34830;44.064;12.566;2024-02-23T07:17:21;5.15;;;2.60;;
49015;SDS011;34830;44.064;12.566;2024-02-23T07:19:48;5.05;;;2.45;;
49015;SDS011;34830;44.064;12.566;2024-02-23T07:22:14;8.43;;;2.92;;
49015;SDS011;34830;44.064;12.566;2024-02-23T07:24:41;8.05;;;2.72;;
49015;SDS011;34830;44.064;12.566;2024-02-23T07:27:11;6.68;;;2.85;;
49015;SDS011;34830;44.064;12.566;2024-02-23T07:29:37;5.72;;;2.30;;
49015;SDS011;34830;44.064;12.566;2024-02-23T07:32:03;6.82;;;2.75;;
49015;SDS011;34830;44.064;12.566;2024-02-23T07:34:30;12.15;;;2.75;;
49015;SDS011;34830;44.064;12.566;2024-02-23T07:36:57;8.45;;;2.08;;
49015;SDS011;34830;44.064;12.566;2024-02-23T07:39:23;5.32;;;2.08;;
49015;SDS011;34830;44.064;12.566;2024-02-23T07:41:49;7.47;;;3.13;;
49015;SDS011;34830;44.064;12.566;2024-02-23T07:44:15;6.30;;;3.30;;
49015;SDS011;34830;44.064;12.566;2024-02-23T07:46:41;11.00;;;2.20;;
49015;SDS011;34830;44.064;12.566;2024-02-23T07:49:07;13.57;;;2.97;;
49015;SDS011;34830;44.064;12.566;2024-02-23T07:51:35;4.95;;;2.33;;
49015;SDS011;34830;44.064;12.566;2024-02-23T07:54:01;6.75;;;2.75;;
49015;SDS011;34830;44.064;12.566;2024-02-23T07:56:28;6.82;;;3.15;;
49015;SDS011;34830;44.064;12.566;2024-02-23T07:58:55;8.52;;;3.38;;
49015;SDS011;34830;44.064;12.566;2024-02-23T08:01:21;4.78;;;2.40;;
49015;SDS011;34830;44.064;12.566;2024-02-23T08:03:47;8.45;;;2.78;;
49015;SDS011;34830;44.064;12.566;2024-02-23T08:06:13;9.27;;;4.10;;
49015;SDS011;34830;44.064;12.566;2024-02-23T08:08:39;6.45;;;3.08;;
49015;SDS011;34830;44.064;12.566;2024-02-23T08:11:05;5.25;;;2.67;;
49015;SDS011;34830;44.064;12.566;2024-02-23T08:13:31;11.32;;;3.03;;
49015;SDS011;34830;44.064;12.566;2024-02-23T08:15:58;8.20;;;2.83;;
49015;SDS011;34830;44.064;12.566;2024-02-23T08:18:24;8.32;;;2.67;;
49015;SDS011;34830;44.064;12.566;2024-02-23T08:20:50;6.93;;;2.50;;
49015;SDS011;34830;44.064;12.566;2024-02-23T08:23:17;9.27;;;2.88;;
49015;SDS011;34830;44.064;12.566;2024-02-23T08:25:44;5.55;;;2.63;;
49015;SDS011;34830;44.064;12.566;2024-02-23T08:28:10;8.20;;;3.17;;
49015;SDS011;34830;44.064;12.566;2024-02-23T08:30:36;5.32;;;3.05;;
49015;SDS011;34830;44.064;12.566;2024-02-23T08:33:02;5.13;;;2.40;;
49015;SDS011;34830;44.064;12.566;2024-02-23T08:35:29;4.32;;;2.47;;
49015;SDS011;34830;44.064;12.566;2024-02-23T08:37:55;7.50;;;2.50;;
49015;SDS011;34830;44.064;12.566;2024-02-23T08:40:21;8.10;;;3.20;;
49015;SDS011;34830;44.064;12.566;2024-02-23T08:42:47;6.35;;;2.70;;
49015;SDS011;34830;44.064;12.566;2024-02-23T08:45:15;8.25;;;2.40;;
49015;SDS011;34830;44.064;12.566;2024-02-23T08:47:42;8.98;;;2.30;;
49015;SDS011;34830;44.064;12.566;2024-02-23T08:50:08;5.65;;;2.17;;
49015;SDS011;34830;44.064;12.566;2024-02-23T08:52:34;5.10;;;2.28;;
49015;SDS011;34830;44.064;12.566;2024-02-23T08:55:00;10.00;;;2.42;;
49015;SDS011;34830;44.064;12.566;2024-02-23T08:57:27;6.18;;;2.20;;
49015;SDS011;34830;44.064;12.566;2024-02-23T08:59:53;8.80;;;3.47;;
49015;SDS011;34830;44.064;12.566;2024-02-23T09:02:20;5.40;;;1.88;;
49015;SDS011;34830;44.064;12.566;2024-02-23T09:04:47;15.68;;;3.45;;
49015;SDS011;34830;44.064;12.566;2024-02-23T09:07:13;7.65;;;2.85;;
49015;SDS011;34830;44.064;12.566;2024-02-23T09:09:39;6.57;;;2.00;;
49015;SDS011;34830;44.064;12.566;2024-02-23T09:12:05;8.05;;;2.88;;
49015;SDS011;34830;44.064;12.566;2024-02-23T09:14:36;15.20;;;3.70;;
49015;SDS011;34830;44.064;12.566;2024-02-23T09:17:04;10.82;;;3.15;;
49015;SDS011;34830;44.064;12.566;2024-02-23T09:19:31;9.98;;;2.97;;
49015;SDS011;34830;44.064;12.566;2024-02-23T09:21:57;11.68;;;3.20;;
49015;SDS011;34830;44.064;12.566;2024-02-23T09:24:26;8.95;;;2.95;;
49015;SDS011;34830;44.064;12.566;2024-02-23T09:26:52;7.47;;;3.42;;
49015;SDS011;34830;44.064;12.566;2024-02-23T09:29:18;6.47;;;2.85;;
49015;SDS011;34830;44.064;12.566;2024-02-23T09:31:44;6.25;;;2.80;;
49015;SDS011;34830;44.064;12.566;2024-02-23T09:34:10;11.52;;;3.35;;
49015;SDS011;34830;44.064;12.566;2024-02-23T09:36:36;10.30;;;3.40;;
49015;SDS011;34830;44.064;12.566;2024-02-23T09:39:02;9.20;;;3.65;;
49015;SDS011;34830;44.064;12.566;2024-02-23T09:41:30;10.82;;;3.45;;
49015;SDS011;34830;44.064;12.566;2024-02-23T09:44:01;8.70;;;3.22;;
49015;SDS011;34830;44.064;12.566;2024-02-23T09:46:27;9.48;;;2.92;;
49015;SDS011;34830;44.064;12.566;2024-02-23T09:48:53;7.03;;;2.95;;
49015;SDS011;34830;44.064;12.566;2024-02-23T09:51:20;10.13;;;2.60;;
49015;SDS011;34830;44.064;12.566;2024-02-23T09:53:49;10.48;;;3.28;;
49015;SDS011;34830;44.064;12.566;2024-02-23T09:56:17;15.23;;;3.50;;
49015;SDS011;34830;44.064;12.566;2024-02-23T09:58:46;6.18;;;3.05;;
49015;SDS011;34830;44.064;12.566;2024-02-23T10:01:14;7.22;;;2.63;;
49015;SDS011;34830;44.064;12.566;2024-02-23T10:03:44;10.53;;;3.13;;
49015;SDS011;34830;44.064;12.566;2024-02-23T10:06:10;12.35;;;3.22;;
49015;SDS011;34830;44.064;12.566;2024-02-23T10:08:36;9.70;;;3.03;;
49015;SDS011;34830;44.064;12.566;2024-02-23T10:11:02;11.18;;;3.22;;
49015;SDS011;34830;44.064;12.566;2024-02-23T10:13:29;10.02;;;2.88;;
49015;SDS011;34830;44.064;12.566;2024-02-23T10:15:55;8.02;;;3.30;;
49015;SDS011;34830;44.064;12.566;2024-02-23T10:18:22;9.82;;;2.92;;
49015;SDS011;34830;44.064;12.566;2024-02-23T10:20:49;11.52;;;3.25;;
49015;SDS011;34830;44.064;12.566;2024-02-23T10:23:16;6.10;;;2.63;;
49015;SDS011;34830;44.064;12.566;2024-02-23T10:25:42;10.00;;;3.42;;
49015;SDS011;34830;44.064;12.566;2024-02-23T10:28:08;6.05;;;2.47;;
49015;SDS011;34830;44.064;12.566;2024-02-23T10:30:36;7.80;;;2.80;;
49015;SDS011;34830;44.064;12.566;2024-02-23T10:33:03;9.23;;;3.15;;
49015;SDS011;34830;44.064;12.566;2024-02-23T10:35:30;11.10;;;3.00;;
49015;SDS011;34830;44.064;12.566;2024-02-23T10:38:00;12.40;;;3.05;;
49015;SDS011;34830;44.064;12.566;2024-02-23T10:40:27;11.35;;;3.17;;
49015;SDS011;34830;44.064;12.566;2024-02-23T10:42:57;19.15;;;4.15;;
49015;SDS011;34830;44.064;12.566;2024-02-23T10:45:28;12.73;;;3.03;;
49015;SDS011;34830;44.064;12.566;2024-02-23T10:47:54;10.40;;;2.85;;
49015;SDS011;34830;44.064;12.566;2024-02-23T10:50:21;9.10;;;2.70;;
49015;SDS011;34830;44.064;12.566;2024-02-23T10:52:48;7.85;;;2.90;;
49015;SDS011;34830;44.064;12.566;2024-02-23T10:55:14;8.10;;;3.03;;
49015;SDS011;34830;44.064;12.566;2024-02-23T10:57:42;13.68;;;3.17;;
49015;SDS011;34830;44.064;12.566;2024-02-23T11:00:09;12.23;;;3.53;;
49015;SDS011;34830;44.064;12.566;2024-02-23T11:02:40;11.02;;;3.60;;
49015;SDS011;34830;44.064;12.566;2024-02-23T11:05:09;11.10;;;3.08;;
49015;SDS011;34830;44.064;12.566;2024-02-23T11:07:38;14.55;;;3.03;;
49015;SDS011;34830;44.064;12.566;2024-02-23T11:10:05;8.50;;;2.90;;
49015;SDS011;34830;44.064;12.566;2024-02-23T11:12:33;9.80;;;3.05;;
49015;SDS011;34830;44.064;12.566;2024-02-23T11:15:00;10.90;;;3.03;;
49015;SDS011;34830;44.064;12.566;2024-02-23T11:17:27;12.63;;;3.83;;
49015;SDS011;34830;44.064;12.566;2024-02-23T11:19:56;10.48;;;2.70;;
49015;SDS011;34830;44.064;12.566;2024-02-23T11:22:26;10.48;;;3.15;;
49015;SDS011;34830;44.064;12.566;2024-02-23T11:25:00;10.05;;;3.13;;
49015;SDS011;34830;44.064;12.566;2024-02-23T11:27:33;8.23;;;3.15;;
49015;SDS011;34830;44.064;12.566;2024-02-23T11:30:01;13.75;;;3.40;;
49015;SDS011;34830;44.064;12.566;2024-02-23T11:32:38;9.90;;;2.80;;
49015;SDS011;34830;44.064;12.566;2024-02-23T11:35:06;9.60;;;3.00;;
49015;SDS011;34830;44.064;12.566;2024-02-23T11:37:43;6.88;;;3.25;;
49015;SDS011;34830;44.064;12.566;2024-02-23T11:40:11;8.60;;;3.75;;
49015;SDS011;34830;44.064;12.566;2024-02-23T11:42:40;7.82;;;3.13;;
49015;SDS011;34830;44.064;12.566;2024-02-23T11:45:07;11.07;;;3.65;;
49015;SDS011;34830;44.064;12.566;2024-02-23T11:47:33;8.25;;;2.95;;
49015;SDS011;34830;44.064;12.566;2024-02-23T11:50:00;9.90;;;3.40;;
49015;SDS011;34830;44.064;12.566;2024-02-23T11:52:26;8.65;;;3.33;;
49015;SDS011;34830;44.064;12.566;2024-02-23T11:54:52;10.27;;;3.83;;
49015;SDS011;34830;44.064;12.566;2024-02-23T11:57:18;25.13;;;3.85;;
49015;SDS011;34830;44.064;12.566;2024-02-23T11:59:44;12.43;;;3.50;;
49015;SDS011;34830;44.064;12.566;2024-02-23T12:02:10;8.25;;;2.95;;
49015;SDS011;34830;44.064;12.566;2024-02-23T12:04:39;14.68;;;4.10;;
49015;SDS011;34830;44.064;12.566;2024-02-23T12:07:05;16.40;;;4.70;;
49015;SDS011;34830;44.064;12.566;2024-02-23T12:09:31;11.40;;;3.65;;
49015;SDS011;34830;44.064;12.566;2024-02-23T12:11:57;11.70;;;3.55;;
49015;SDS011;34830;44.064;12.566;2024-02-23T12:14:23;8.73;;;3.30;;
49015;SDS011;34830;44.064;12.566;2024-02-23T12:16:51;9.20;;;3.38;;
49015;SDS011;34830;44.064;12.566;2024-02-23T12:19:17;12.60;;;3.63;;
49015;SDS011;34830;44.064;12.566;2024-02-23T12:21:46;11.88;;;3.63;;
49015;SDS011;34830;44.064;12.566;2024-02-23T12:24:12;10.82;;;4.20;;
49015;SDS011;34830;44.064;12.566;2024-02-23T12:26:38;11.60;;;4.30;;
49015;SDS011;34830;44.064;12.566;2024-02-23T12:29:05;11.02;;;3.83;;
49015;SDS011;34830;44.064;12.566;2024-02-23T12:31:31;10.65;;;3.40;;
49015;SDS011;34830;44.064;12.566;2024-02-23T12:33:58;9.45;;;3.20;;
49015;SDS011;34830;44.064;12.566;2024-02-23T12:36:24;13.68;;;3.90;;
49015;SDS011;34830;44.064;12.566;2024-02-23T12:38:50;9.68;;;3.83;;
49015;SDS011;34830;44.064;12.566;2024-02-23T12:41:16;12.88;;;4.20;;
49015;SDS011;34830;44.064;12.566;2024-02-23T12:43:42;9.80;;;3.70;;
49015;SDS011;34830;44.064;12.566;2024-02-23T12:46:08;14.18;;;4.55;;
49015;SDS011;34830;44.064;12.566;2024-02-23T12:48:34;10.30;;;3.60;;
49015;SDS011;34830;44.064;12.566;2024-02-23T12:51:01;14.68;;;3.78;;
49015;SDS011;34830;44.064;12.566;2024-02-23T12:53:35;12.07;;;4.43;;
49015;SDS011;34830;44.064;12.566;2024-02-23T12:56:03;24.75;;;5.65;;
49015;SDS011;34830;44.064;12.566;2024-02-23T12:58:37;9.05;;;3.30;;
49015;SDS011;34830;44.064;12.566;2024-02-23T13:01:04;12.40;;;4.25;;
49015;SDS011;34830;44.064;12.566;2024-02-23T13:03:31;11.45;;;4.57;;
49015;SDS011;34830;44.064;12.566;2024-02-23T13:05:58;11.57;;;3.97;;
49015;SDS011;34830;44.064;12.566;2024-02-23T13:08:25;9.52;;;3.50;;
49015;SDS011;34830;44.064;12.566;2024-02-23T13:10:52;11.35;;;3.40;;
49015;SDS011;34830;44.064;12.566;2024-02-23T13:13:19;11.77;;;3.72;;
49015;SDS011;34830;44.064;12.566;2024-02-23T13:15:46;18.67;;;5.25;;
49015;SDS011;34830;44.064;12.566;2024-02-23T13:18:13;13.45;;;4.30;;
49015;SDS011;34830;44.064;12.566;2024-02-23T13:20:39;18.05;;;4.60;;
49015;SDS011;34830;44.064;12.566;2024-02-23T13:23:09;13.25;;;3.83;;
49015;SDS011;34830;44.064;12.566;2024-02-23T13:25:35;11.18;;;3.63;;
49015;SDS011;34830;44.064;12.566;2024-02-23T13:28:02;9.20;;;3.65;;
49015;SDS011;34830;44.064;12.566;2024-02-23T13:30:28;14.68;;;3.78;;
49015;SDS011;34830;44.064;12.566;2024-02-23T13:32:54;11.00;;;3.40;;
49015;SDS011;34830;44.064;12.566;2024-02-23T13:35:21;12.43;;;3.72;;
49015;SDS011;34830;44.064;12.566;2024-02-23T13:37:47;12.93;;;4.03;;
49015;SDS011;34830;44.064;12.566;2024-02-23T13:40:14;11.38;;;4.03;;
49015;SDS011;34830;44.064;12.566;2024-02-23T13:42:40;10.27;;;4.22;;
49015;SDS011;34830;44.064;12.566;2024-02-23T13:45:06;17.02;;;4.30;;
49015;SDS011;34830;44.064;12.566;2024-02-23T13:47:34;15.75;;;4.30;;
49015;SDS011;34830;44.064;12.566;2024-02-23T13:50:01;19.27;;;5.82;;
49015;SDS011;34830;44.064;12.566;2024-02-23T13:52:28;14.95;;;4.50;;
49015;SDS011;34830;44.064;12.566;2024-02-23T13:54:54;13.57;;;4.35;;
49015;SDS011;34830;44.064;12.566;2024-02-23T13:57:20;13.35;;;3.95;;
49015;SDS011;34830;44.064;12.566;2024-02-23T13:59:47;11.23;;;4.03;;
49015;SDS011;34830;44.064;12.566;2024-02-23T14:02:13;14.68;;;4.10;;
49015;SDS011;34830;44.064;12.566;2024-02-23T14:04:40;9.52;;;4.00;;
49015;SDS011;34830;44.064;12.566;2024-02-23T14:07:06;16.13;;;4.10;;
49015;SDS011;34830;44.064;12.566;2024-02-23T14:09:33;13.15;;;3.90;;
49015;SDS011;34830;44.064;12.566;2024-02-23T14:11:59;14.15;;;3.80;;
49015;SDS011;34830;44.064;12.566;2024-02-23T14:14:25;14.13;;;3.45;;
49015;SDS011;34830;44.064;12.566;2024-02-23T14:16:51;12.77;;;3.53;;
49015;SDS011;34830;44.064;12.566;2024-02-23T14:19:17;11.10;;;3.47;;
49015;SDS011;34830;44.064;12.566;2024-02-23T14:21:44;9.68;;;3.15;;
49015;SDS011;34830;44.064;12.566;2024-02-23T14:24:11;13.98;;;3.95;;
49015;SDS011;34830;44.064;12.566;2024-02-23T14:26:37;9.68;;;3.08;;